Decoded Metar for CYBU (NIPAWIN AIRPORT in SK, CANADA) (IATA:YBU) | Meteo·Mobile Aviation Weather
aviador You're here:

CYBU Decoded Metar

NIPAWIN AIRPORT in SK, CANADA
Report Time2020-02-23 09:00:00
UTC Time2020-02-23 10:03:10
Flight Rules vfr VFR
Wind260° at 14 kt
W.Decomp.*RWY 21: 10.6 kt HW 9.2 kt RCW
RWY 30: 9.2 kt HW 10.6 kt LCW
Visibility9999 m
Phenomena:N/A
Clouds:N/A
Expected CloudBase > 1,200 ft AGL from Temp-Dew spread
CeilingNone
Temp-1°C (ISA -14)
Dew Point-4°C (80% RH)
AAT-8.5°C
QNH1006 hPa
Density Alt-121 ft
Elevation1,227 ft
Report Wrong Elevation
Raw Report
CYBU 230900Z AUTO 26014KT 9SM CLR M01/M04 A2970 RMK SLP081=

Extra information for CYBU:More info

Metar Taf Metar & Taf Last 4 Metars F.Rules Stats Wind Profile Meteogram Temp Stats Airport Information Weather charts Add Link Nearby VenuesMetar ALERT Operation Metar Decoded Social comments